CJL9 weather

Radisson Airport
Radisson, Saskatchewan, Canada

Public forecast

Using degrees Celsius for public forecast. Weather courtesy of forecast.io.

Closest aviation weather report (METAR) to Radisson Airport

Closest report is Saskatoon John G. Diefenbaker International Airport, 30.4 nm (56.3 km) SE. Retrieved 2019/10/18 03:00 UTC (27 minutes ago):

CYXE 180300Z 20008KT 15SM BKN140 OVC180 11/02 A2930 RMK AC5AC3 SLP937 DENSITY ALT 2400FT

Closest aviation forecast (TAF) to Radisson Airport

Closest forecast is Saskatoon John G. Diefenbaker International Airport, 30.4 nm (56.3 km) SE. Retrieved 2019-10-18 00:42 UTC (3 hours ago):

TAF CYXE 172340Z 1800/1824 17010KT P6SM SCT180 BKN300 BECMG 1801/1803 28006KT FM181000 VRB03KT P6SM FEW010 FEW240 PROB30 1810/1816 1/2SM FG VV002 FM182000 20008KT P6SM SCT210 RMK NXT FCST BY 180600Z